createdAt,value
2018-12-10T00:00:26.015Z,87.73
2018-12-10T00:01:31.209Z,87.51
2018-12-10T00:02:36.824Z,87.99
2018-12-10T00:03:42.418Z,87.65
2018-12-10T00:04:48.053Z,87.08
2018-12-10T00:05:53.667Z,87.11
2018-12-10T00:06:59.280Z,87.57
2018-12-10T00:08:04.915Z,87.84
2018-12-10T00:09:10.531Z,87.87
2018-12-10T00:10:16.132Z,87.82
2018-12-10T00:11:21.722Z,88.05
2018-12-10T00:12:27.350Z,88.57
2018-12-10T00:13:32.972Z,89.30
2018-12-10T00:14:38.576Z,88.26
2018-12-10T00:15:44.189Z,88.40
2018-12-10T00:16:49.817Z,89.03
2018-12-10T00:17:55.410Z,87.83
2018-12-10T00:19:00.997Z,87.82
2018-12-10T00:20:05.916Z,87.81
2018-12-10T00:21:11.506Z,88.17
2018-12-10T00:22:17.135Z,88.37
2018-12-10T00:23:22.717Z,88.51
2018-12-10T00:24:28.311Z,88.35
2018-12-10T00:25:33.893Z,87.70
2018-12-10T00:26:39.510Z,87.99
2018-12-10T00:27:44.762Z,87.92
2018-12-10T00:28:50.358Z,87.72
2018-12-10T00:29:55.945Z,88.13
2018-12-10T00:31:01.558Z,87.97
2018-12-10T00:32:07.729Z,87.80
2018-12-10T00:33:13.813Z,87.33
2018-12-10T00:34:19.441Z,87.43
2018-12-10T00:35:25.076Z,88.29
2018-12-10T00:36:30.649Z,87.71
2018-12-10T00:37:36.296Z,88.62
2018-12-10T00:38:41.938Z,89.27
2018-12-10T00:39:47.533Z,88.45
2018-12-10T00:40:53.147Z,88.13
2018-12-10T00:41:58.789Z,87.80
2018-12-10T00:43:04.050Z,88.08
2018-12-10T00:44:09.659Z,87.64
2018-12-10T00:45:15.249Z,88.28
2018-12-10T00:46:22.613Z,88.16
2018-12-10T00:47:26.514Z,88.20
2018-12-10T00:48:32.125Z,88.00
2018-12-10T00:49:37.737Z,88.09
2018-12-10T00:50:43.576Z,87.45
2018-12-10T00:51:49.190Z,87.40
2018-12-10T00:52:54.826Z,87.46
2018-12-10T00:54:00.425Z,87.65
2018-12-10T00:55:05.725Z,86.95
2018-12-10T00:56:11.315Z,86.82
2018-12-10T00:57:16.940Z,87.08
2018-12-10T00:58:22.616Z,87.17
2018-12-10T00:59:28.236Z,87.18
2018-12-10T01:00:33.441Z,87.27
2018-12-10T01:01:41.211Z,86.52
2018-12-10T01:02:44.711Z,87.27
2018-12-10T01:03:50.286Z,87.18
2018-12-10T01:04:55.905Z,86.81
2018-12-10T01:06:01.529Z,86.13
2018-12-10T01:07:07.187Z,86.79
2018-12-10T01:08:12.796Z,87.45
2018-12-10T01:09:18.420Z,86.36
2018-12-10T01:10:24.065Z,86.15
2018-12-10T01:11:29.911Z,86.56
2018-12-10T01:12:35.552Z,86.89
2018-12-10T01:13:40.464Z,85.76
2018-12-10T01:14:46.081Z,85.00
2018-12-10T01:15:51.648Z,85.10
2018-12-10T01:16:57.256Z,85.33
2018-12-10T01:18:02.841Z,84.72
2018-12-10T01:19:08.428Z,85.31
2018-12-10T01:20:14.041Z,85.11
2018-12-10T01:21:19.647Z,85.15
2018-12-10T01:22:25.288Z,85.83
2018-12-10T01:23:30.899Z,86.24
2018-12-10T01:24:36.533Z,85.49
2018-12-10T01:25:42.143Z,85.76
2018-12-10T01:26:47.806Z,86.05
2018-12-10T01:27:53.411Z,86.68
2018-12-10T01:28:59.025Z,86.24
2018-12-10T01:30:03.942Z,85.90
2018-12-10T01:31:09.549Z,87.22
2018-12-10T01:32:15.171Z,86.95
2018-12-10T01:33:20.762Z,86.94
2018-12-10T01:34:26.382Z,87.41
2018-12-10T01:35:31.285Z,87.36
2018-12-10T01:36:37.576Z,87.79
2018-12-10T01:37:43.200Z,88.09
2018-12-10T01:38:48.862Z,88.51
2018-12-10T01:39:54.483Z,88.97
2018-12-10T01:41:00.088Z,89.41
2018-12-10T01:42:05.705Z,89.51
2018-12-10T01:43:10.985Z,89.75
2018-12-10T01:44:16.622Z,90.72
2018-12-10T01:45:22.194Z,90.61
2018-12-10T01:46:27.785Z,90.69
2018-12-10T01:47:33.639Z,90.48
2018-12-10T01:48:39.233Z,90.62
2018-12-10T01:49:44.837Z,91.02
2018-12-10T01:50:50.412Z,91.32
2018-12-10T01:51:56.015Z,91.84
2018-12-10T01:53:01.663Z,91.62
2018-12-10T01:54:07.270Z,91.50
2018-12-10T01:55:12.916Z,90.97
2018-12-10T01:56:18.520Z,91.35
2018-12-10T01:57:24.154Z,90.68
2018-12-10T01:58:29.771Z,90.00
2018-12-10T01:59:36.110Z,90.04
2018-12-10T02:00:42.272Z,89.96
2018-12-10T02:01:46.852Z,90.79
2018-12-10T02:02:51.463Z,90.81
2018-12-10T02:03:56.042Z,91.41
2018-12-10T02:05:00.645Z,91.93
2018-12-10T02:06:05.215Z,91.51
2018-12-10T02:07:09.830Z,90.81
2018-12-10T02:08:14.397Z,90.48
2018-12-10T02:09:20.045Z,91.33
2018-12-10T02:10:25.667Z,91.24
2018-12-10T02:11:31.241Z,90.06
2018-12-10T02:12:36.903Z,90.10
2018-12-10T02:13:42.470Z,90.17
2018-12-10T02:14:48.058Z,90.43
2018-12-10T02:15:53.644Z,90.45
2018-12-10T02:16:59.228Z,90.04
2018-12-10T02:18:04.885Z,89.78
2018-12-10T02:19:10.499Z,90.19
2018-12-10T02:20:16.104Z,90.47
2018-12-10T02:21:21.736Z,90.69
2018-12-10T02:22:27.361Z,90.76
2018-12-10T02:23:32.927Z,90.41
2018-12-10T02:24:38.500Z,90.39
2018-12-10T02:25:44.102Z,90.68
2018-12-10T02:26:49.337Z,90.50
2018-12-10T02:27:55.019Z,91.02
2018-12-10T02:29:06.069Z,91.56
2018-12-10T02:30:11.305Z,91.14
2018-12-10T02:31:16.875Z,91.50
2018-12-10T02:32:22.492Z,90.58
2018-12-10T02:33:28.103Z,90.50
2018-12-10T02:34:33.725Z,90.48
2018-12-10T02:35:39.320Z,89.57
2018-12-10T02:36:44.900Z,90.33
2018-12-10T02:37:50.544Z,89.58
2018-12-10T02:38:55.833Z,90.00
2018-12-10T02:40:01.441Z,91.07
2018-12-10T02:41:07.355Z,91.34
2018-12-10T02:42:12.980Z,91.25
2018-12-10T02:43:18.591Z,91.67
2018-12-10T02:44:25.989Z,91.25
2018-12-10T02:45:31.581Z,90.63
2018-12-10T02:46:37.179Z,90.21
2018-12-10T02:47:42.800Z,90.12
2018-12-10T02:48:48.424Z,89.63
2018-12-10T02:49:54.014Z,89.49
2018-12-10T02:50:59.622Z,89.51
2018-12-10T02:52:04.883Z,89.27
2018-12-10T02:53:10.485Z,88.63
2018-12-10T02:54:16.111Z,89.21
2018-12-10T02:55:21.703Z,89.35
2018-12-10T02:56:27.289Z,90.07
2018-12-10T02:57:32.908Z,90.34
2018-12-10T02:58:38.540Z,90.17
2018-12-10T02:59:44.183Z,90.56
2018-12-10T03:00:50.305Z,90.46
2018-12-10T03:01:56.847Z,90.24
2018-12-10T03:03:03.371Z,90.11
2018-12-10T03:04:10.021Z,89.87
2018-12-10T03:05:17.453Z,89.68
2018-12-10T03:06:24.829Z,90.34
2018-12-10T03:07:31.513Z,90.95
2018-12-10T03:08:38.573Z,91.31
2018-12-10T03:09:45.113Z,91.67
2018-12-10T03:10:51.805Z,91.78
2018-12-10T03:11:58.396Z,91.63
2018-12-10T03:13:05.311Z,92.45
2018-12-10T03:14:11.500Z,92.14
2018-12-10T03:15:17.095Z,92.33
2018-12-10T03:16:22.714Z,92.44
2018-12-10T03:17:29.701Z,93.23
2018-12-10T03:18:35.294Z,92.69
2018-12-10T03:19:40.863Z,92.47
2018-12-10T03:20:46.492Z,92.16
2018-12-10T03:21:52.096Z,91.88
2018-12-10T03:22:57.714Z,92.18
2018-12-10T03:24:03.315Z,92.25
2018-12-10T03:25:08.951Z,92.05
2018-12-10T03:26:14.542Z,91.83
2018-12-10T03:27:20.185Z,91.75
2018-12-10T03:28:25.803Z,91.77
2018-12-10T03:29:31.197Z,92.31
2018-12-10T03:30:36.825Z,92.73
2018-12-10T03:31:42.419Z,93.26
2018-12-10T03:32:48.067Z,92.46
2018-12-10T03:33:53.690Z,91.67
2018-12-10T03:34:59.332Z,91.56
2018-12-10T03:36:04.928Z,91.84
2018-12-10T03:37:10.568Z,92.10
2018-12-10T03:38:16.207Z,92.20
2018-12-10T03:39:21.864Z,92.41
2018-12-10T03:40:27.483Z,91.42
2018-12-10T03:41:33.101Z,91.51
2018-12-10T03:42:38.768Z,92.16
2018-12-10T03:43:44.352Z,92.59
2018-12-10T03:44:49.969Z,93.42
2018-12-10T03:45:55.612Z,92.74
2018-12-10T03:47:01.329Z,92.64
2018-12-10T03:48:06.997Z,93.62
2018-12-10T03:49:12.673Z,94.04
2018-12-10T03:50:18.261Z,94.02
2018-12-10T03:51:23.888Z,93.33
2018-12-10T03:52:29.526Z,94.16
2018-12-10T03:53:35.119Z,94.63
2018-12-10T03:54:40.701Z,95.00
2018-12-10T03:55:46.323Z,95.77
2018-12-10T03:56:51.943Z,95.06
2018-12-10T03:57:57.562Z,94.62
2018-12-10T03:59:03.184Z,95.21
2018-12-10T04:00:08.425Z,95.91
2018-12-10T04:01:14.092Z,96.80
2018-12-10T04:02:19.697Z,96.89
2018-12-10T04:03:25.288Z,96.42
2018-12-10T04:04:30.886Z,96.78
2018-12-10T04:05:36.505Z,96.81
2018-12-10T04:06:42.666Z,96.83
2018-12-10T04:07:48.246Z,95.90
2018-12-10T04:08:53.840Z,96.16
2018-12-10T04:09:59.482Z,95.72
2018-12-10T04:11:05.076Z,95.20
2018-12-10T04:12:10.698Z,94.66
2018-12-10T04:13:16.327Z,94.15
2018-12-10T04:14:21.908Z,94.89
2018-12-10T04:15:27.141Z,95.14
2018-12-10T04:16:32.766Z,94.44
2018-12-10T04:17:38.423Z,94.08
2018-12-10T04:18:44.066Z,94.89
2018-12-10T04:19:49.660Z,94.96
2018-12-10T04:20:55.291Z,95.12
2018-12-10T04:22:00.923Z,94.89
2018-12-10T04:23:06.548Z,94.98
2018-12-10T04:24:11.848Z,94.99
2018-12-10T04:25:17.451Z,93.98
2018-12-10T04:26:23.035Z,93.24
2018-12-10T04:27:28.656Z,93.94
2018-12-10T04:28:34.235Z,94.24
2018-12-10T04:29:39.832Z,93.65
2018-12-10T04:30:45.436Z,94.19
2018-12-10T04:31:51.264Z,93.84
2018-12-10T04:32:56.869Z,94.33
2018-12-10T04:34:02.459Z,94.12
2018-12-10T04:35:07.738Z,93.53
2018-12-10T04:36:12.996Z,92.91
2018-12-10T04:37:18.625Z,92.83
2018-12-10T04:38:24.281Z,93.03
2018-12-10T04:39:29.899Z,93.84
2018-12-10T04:40:34.857Z,94.17
2018-12-10T04:41:40.478Z,93.84
2018-12-10T04:42:46.080Z,93.15
2018-12-10T04:43:52.091Z,93.02
2018-12-10T04:44:58.093Z,93.16
2018-12-10T04:46:03.691Z,92.87
2018-12-10T04:47:09.295Z,91.96
2018-12-10T04:48:14.910Z,91.92
2018-12-10T04:49:20.543Z,92.67
2018-12-10T04:50:26.168Z,92.54
2018-12-10T04:51:31.768Z,93.29
2018-12-10T04:52:37.405Z,93.86
2018-12-10T04:53:43.035Z,93.22
2018-12-10T04:54:48.666Z,91.85
2018-12-10T04:55:54.277Z,92.07
2018-12-10T04:56:59.922Z,92.64
2018-12-10T04:58:05.599Z,92.88
2018-12-10T04:59:11.176Z,93.08
2018-12-10T05:00:16.776Z,92.44
2018-12-10T05:01:22.388Z,93.13
2018-12-10T05:02:28.029Z,93.65
2018-12-10T05:03:33.628Z,93.54
2018-12-10T05:04:39.219Z,92.87
2018-12-10T05:05:44.829Z,92.83
2018-12-10T05:06:50.474Z,92.51
2018-12-10T05:07:56.071Z,92.25
2018-12-10T05:09:01.708Z,92.53
2018-12-10T05:10:06.669Z,93.61
2018-12-10T05:11:12.310Z,94.39
2018-12-10T05:12:17.892Z,94.52
2018-12-10T05:13:23.534Z,94.84
2018-12-10T05:14:29.168Z,94.91
2018-12-10T05:15:34.744Z,94.63
2018-12-10T05:16:40.324Z,93.82
2018-12-10T05:17:45.928Z,93.43
2018-12-10T05:18:51.555Z,93.15
2018-12-10T05:19:57.171Z,94.03
2018-12-10T05:21:02.762Z,94.15
2018-12-10T05:22:08.338Z,94.42
2018-12-10T05:23:13.957Z,94.52
2018-12-10T05:24:19.613Z,93.44
2018-12-10T05:25:25.257Z,93.32
2018-12-10T05:26:30.829Z,93.26
2018-12-10T05:27:36.460Z,93.19
2018-12-10T05:28:42.033Z,93.37
2018-12-10T05:29:47.643Z,93.71
2018-12-10T05:30:53.265Z,92.35
2018-12-10T05:31:58.900Z,91.98
2018-12-10T05:33:04.599Z,92.47
2018-12-10T05:34:11.307Z,91.86
2018-12-10T05:35:15.926Z,91.88
2018-12-10T05:36:21.570Z,92.98
2018-12-10T05:37:27.209Z,93.09
2018-12-10T05:38:32.867Z,92.76
2018-12-10T05:39:38.652Z,92.67
2018-12-10T05:40:44.208Z,92.96
2018-12-10T05:41:49.785Z,92.77
2018-12-10T05:42:55.408Z,92.27
2018-12-10T05:44:01.045Z,91.88
2018-12-10T05:45:06.649Z,92.20
2018-12-10T05:46:12.270Z,92.69
2018-12-10T05:47:17.893Z,92.82
2018-12-10T05:48:23.500Z,92.38
2018-12-10T05:49:29.094Z,92.16
2018-12-10T05:50:34.349Z,92.16
2018-12-10T05:51:39.953Z,92.03
2018-12-10T05:52:45.530Z,91.59
2018-12-10T05:53:51.201Z,91.94
2018-12-10T05:54:56.837Z,91.62
2018-12-10T05:56:02.940Z,91.67
2018-12-10T05:57:08.960Z,91.75
2018-12-10T05:58:17.735Z,92.11
2018-12-10T05:59:21.967Z,92.04
2018-12-10T06:00:27.609Z,92.06
2018-12-10T06:01:33.254Z,92.15
2018-12-10T06:02:38.887Z,92.39
2018-12-10T06:03:44.532Z,92.79
2018-12-10T06:04:50.156Z,92.44
2018-12-10T06:05:55.772Z,92.68
2018-12-10T06:07:01.439Z,92.95
2018-12-10T06:08:07.036Z,93.65
2018-12-10T06:09:12.336Z,93.08
2018-12-10T06:10:17.969Z,93.22
2018-12-10T06:11:23.616Z,92.88
2018-12-10T06:12:29.246Z,92.76
2018-12-10T06:13:34.884Z,92.72
2018-12-10T06:14:40.557Z,93.45
2018-12-10T06:15:46.185Z,93.57
2018-12-10T06:16:51.803Z,93.30
2018-12-10T06:17:57.447Z,93.88
2018-12-10T06:19:03.354Z,93.59
2018-12-10T06:20:08.977Z,93.90
2018-12-10T06:21:14.631Z,94.30
2018-12-10T06:22:20.220Z,93.60
2018-12-10T06:23:25.866Z,92.71
2018-12-10T06:24:31.530Z,92.55
2018-12-10T06:25:37.161Z,92.39
2018-12-10T06:26:42.813Z,92.45
2018-12-10T06:27:48.392Z,93.25
2018-12-10T06:28:54.040Z,93.02
2018-12-10T06:29:59.646Z,92.75
2018-12-10T06:31:05.278Z,92.29
2018-12-10T06:32:10.912Z,91.93
2018-12-10T06:33:16.524Z,90.99
2018-12-10T06:34:22.228Z,90.67
2018-12-10T06:35:27.816Z,90.13
2018-12-10T06:36:33.431Z,90.11
2018-12-10T06:37:39.080Z,91.14
2018-12-10T06:38:44.700Z,90.99
2018-12-10T06:39:50.373Z,89.93
2018-12-10T06:40:56.089Z,89.58
2018-12-10T06:42:01.735Z,89.84
2018-12-10T06:43:07.311Z,89.51
2018-12-10T06:44:13.008Z,89.63
2018-12-10T06:45:18.236Z,90.09
2018-12-10T06:46:23.857Z,89.54
2018-12-10T06:47:29.432Z,89.03
2018-12-10T06:48:35.103Z,90.01
2018-12-10T06:49:40.749Z,90.03
2018-12-10T06:50:46.360Z,90.07
2018-12-10T06:51:51.988Z,90.31
2018-12-10T06:52:57.603Z,90.45
2018-12-10T06:54:03.232Z,90.24
2018-12-10T06:55:08.545Z,91.11
2018-12-10T06:56:14.190Z,91.20
2018-12-10T06:57:19.469Z,91.13
2018-12-10T06:58:25.099Z,90.79
2018-12-10T06:59:31.566Z,90.78
2018-12-10T07:00:37.213Z,90.91
2018-12-10T07:01:43.286Z,91.66
2018-12-10T07:02:48.908Z,92.27
2018-12-10T07:03:54.291Z,91.67
2018-12-10T07:05:00.013Z,91.74
2018-12-10T07:06:05.666Z,91.61
2018-12-10T07:07:11.333Z,91.70
2018-12-10T07:08:16.977Z,91.85
2018-12-10T07:09:22.588Z,91.31
2018-12-10T07:10:28.228Z,91.40
2018-12-10T07:11:33.523Z,91.71
2018-12-10T07:12:39.254Z,91.60
2018-12-10T07:13:44.881Z,91.80
2018-12-10T07:14:50.511Z,92.51
2018-12-10T07:15:56.202Z,92.38
2018-12-10T07:17:01.856Z,92.00
2018-12-10T07:18:08.540Z,92.45
2018-12-10T07:19:14.163Z,92.83
2018-12-10T07:20:19.822Z,91.94
2018-12-10T07:21:25.478Z,91.76
2018-12-10T07:22:31.889Z,92.06
2018-12-10T07:23:37.499Z,91.97
2018-12-10T07:24:43.183Z,91.92
2018-12-10T07:25:48.856Z,91.63
2018-12-10T07:26:54.445Z,92.28
2018-12-10T07:28:00.072Z,91.92
2018-12-10T07:29:05.315Z,91.60
2018-12-10T07:30:10.955Z,92.10
2018-12-10T07:31:16.623Z,91.73
2018-12-10T07:32:22.261Z,91.30
2018-12-10T07:33:27.864Z,91.32
2018-12-10T07:34:33.485Z,91.05
2018-12-10T07:35:39.068Z,90.84
2018-12-10T07:36:44.731Z,91.61
2018-12-10T07:37:50.331Z,91.34
2018-12-10T07:38:55.936Z,91.33
2018-12-10T07:40:01.583Z,90.93
2018-12-10T07:41:07.308Z,90.62
2018-12-10T07:42:12.893Z,90.13
2018-12-10T07:43:18.536Z,90.52
2018-12-10T07:44:24.167Z,90.34
2018-12-10T07:45:30.620Z,90.63
2018-12-10T07:46:36.517Z,91.01
2018-12-10T07:47:42.404Z,90.53
2018-12-10T07:48:48.125Z,90.35
2018-12-10T07:49:53.771Z,90.14
2018-12-10T07:50:59.395Z,90.34
2018-12-10T07:52:05.442Z,91.10
2018-12-10T07:53:11.921Z,92.10
2018-12-10T07:54:17.742Z,92.23
2018-12-10T07:55:23.385Z,91.76
2018-12-10T07:56:29.304Z,91.74
2018-12-10T07:57:34.738Z,91.97
2018-12-10T07:58:40.345Z,92.08
2018-12-10T07:59:46.332Z,92.30
2018-12-10T08:00:51.980Z,92.15
2018-12-10T08:01:57.670Z,91.85
2018-12-10T08:03:03.304Z,91.60
2018-12-10T08:04:08.922Z,92.62
2018-12-10T08:05:14.552Z,93.12
2018-12-10T08:06:20.898Z,92.84
2018-12-10T08:07:26.519Z,92.84
2018-12-10T08:08:32.158Z,92.47
2018-12-10T08:09:37.806Z,91.93
2018-12-10T08:10:44.223Z,91.28
2018-12-10T08:11:50.617Z,91.09
2018-12-10T08:12:56.298Z,90.76
2018-12-10T08:14:03.598Z,91.06
2018-12-10T08:15:07.062Z,91.21
2018-12-10T08:16:12.685Z,91.29
2018-12-10T08:17:18.923Z,90.75
2018-12-10T08:18:24.584Z,90.37
2018-12-10T08:19:30.200Z,90.36
2018-12-10T08:20:35.821Z,90.37
2018-12-10T08:21:41.416Z,89.85
2018-12-10T08:22:47.056Z,89.24
2018-12-10T08:23:52.682Z,89.43
2018-12-10T08:24:58.273Z,89.79
2018-12-10T08:26:03.908Z,89.94
2018-12-10T08:27:09.733Z,89.65
2018-12-10T08:28:14.864Z,89.29
2018-12-10T08:29:20.442Z,88.97
2018-12-10T08:30:26.062Z,89.25
2018-12-10T08:31:32.270Z,88.72
2018-12-10T08:32:37.941Z,89.43
2018-12-10T08:33:44.994Z,89.92
2018-12-10T08:34:50.615Z,89.26
2018-12-10T08:35:56.188Z,88.18
2018-12-10T08:37:01.793Z,88.65
2018-12-10T08:38:07.600Z,88.44
2018-12-10T08:39:13.215Z,88.47
2018-12-10T08:40:18.804Z,88.25
2018-12-10T08:41:24.499Z,88.91
2018-12-10T08:42:30.113Z,88.41
2018-12-10T08:43:37.505Z,88.28
2018-12-10T08:44:43.132Z,89.01
2018-12-10T08:45:48.759Z,89.78
2018-12-10T08:46:54.977Z,90.04
2018-12-10T08:48:00.617Z,89.22
2018-12-10T08:49:06.312Z,88.88
2018-12-10T08:50:11.581Z,88.44
2018-12-10T08:51:17.318Z,89.06
2018-12-10T08:52:22.480Z,88.52
2018-12-10T08:53:28.155Z,88.67
2018-12-10T08:54:33.794Z,88.41
2018-12-10T08:55:39.493Z,88.39
2018-12-10T08:56:45.133Z,88.36
2018-12-10T08:57:50.727Z,87.58
2018-12-10T08:58:56.768Z,88.19
2018-12-10T09:00:02.387Z,88.40
2018-12-10T09:01:08.219Z,87.52
2018-12-10T09:02:13.931Z,86.82
2018-12-10T09:03:19.565Z,86.72
2018-12-10T09:04:25.160Z,86.61
2018-12-10T09:05:31.240Z,87.19
2018-12-10T09:06:36.840Z,86.97
2018-12-10T09:07:42.989Z,86.72
2018-12-10T09:08:48.597Z,87.12
2018-12-10T09:09:54.210Z,86.89
2018-12-10T09:11:00.527Z,87.02
2018-12-10T09:12:06.892Z,87.47
2018-12-10T09:13:12.523Z,87.54
2018-12-10T09:14:18.136Z,87.75
2018-12-10T09:15:23.880Z,87.63
2018-12-10T09:16:30.092Z,87.62
2018-12-10T09:17:35.688Z,87.58
2018-12-10T09:18:40.988Z,87.40
2018-12-10T09:19:46.632Z,87.10
2018-12-10T09:20:52.268Z,87.52
2018-12-10T09:21:57.922Z,87.75
2018-12-10T09:23:03.850Z,88.14
2018-12-10T09:24:09.505Z,86.65
2018-12-10T09:25:15.122Z,86.52
2018-12-10T09:26:20.747Z,86.07
2018-12-10T09:27:26.492Z,85.69
2018-12-10T09:28:32.588Z,85.30
2018-12-10T09:29:38.267Z,85.16
2018-12-10T09:30:43.869Z,85.44
2018-12-10T09:31:49.532Z,85.73
2018-12-10T09:32:55.545Z,86.65
2018-12-10T09:34:01.564Z,86.62
2018-12-10T09:35:06.531Z,85.94
2018-12-10T09:36:12.129Z,84.82
2018-12-10T09:37:17.728Z,84.90
2018-12-10T09:38:23.346Z,85.60
2018-12-10T09:39:30.201Z,84.37
2018-12-10T09:40:35.765Z,84.70
2018-12-10T09:41:41.575Z,85.16
2018-12-10T09:42:47.633Z,84.97
2018-12-10T09:43:53.292Z,85.34
2018-12-10T09:44:58.922Z,85.98
2018-12-10T09:46:05.150Z,86.43
2018-12-10T09:47:10.764Z,86.35
2018-12-10T09:48:16.394Z,86.15
2018-12-10T09:49:22.071Z,86.84
2018-12-10T09:50:27.721Z,87.08
2018-12-10T09:51:33.317Z,87.69
2018-12-10T09:52:38.965Z,87.86
2018-12-10T09:53:45.541Z,87.83
2018-12-10T09:54:51.839Z,87.91
2018-12-10T09:55:57.893Z,88.08
2018-12-10T09:57:03.512Z,88.13
2018-12-10T09:58:09.080Z,87.58
2018-12-10T09:59:14.702Z,87.74
2018-12-10T10:00:20.338Z,87.90
2018-12-10T10:01:26.157Z,87.77
2018-12-10T10:02:31.910Z,87.46
2018-12-10T10:03:37.505Z,86.56
2018-12-10T10:04:43.249Z,86.93
2018-12-10T10:05:48.885Z,87.33
2018-12-10T10:06:54.577Z,86.35
2018-12-10T10:08:00.237Z,86.39
2018-12-10T10:09:05.181Z,85.80
2018-12-10T10:10:10.448Z,84.90
2018-12-10T10:11:16.169Z,84.22
2018-12-10T10:12:23.680Z,83.68
2018-12-10T10:13:27.468Z,83.39
2018-12-10T10:14:33.125Z,82.63
2018-12-10T10:15:38.733Z,81.73
2018-12-10T10:16:44.405Z,81.34
2018-12-10T10:17:50.532Z,80.58
2018-12-10T10:18:56.266Z,80.89
2018-12-10T10:20:01.907Z,80.52
2018-12-10T10:21:11.394Z,81.12
2018-12-10T10:22:14.041Z,81.24
2018-12-10T10:23:19.796Z,80.39
2018-12-10T10:24:25.402Z,80.79
2018-12-10T10:25:31.202Z,81.51
2018-12-10T10:26:37.448Z,81.21
2018-12-10T10:27:43.042Z,82.15
2018-12-10T10:28:48.875Z,81.95
2018-12-10T10:29:54.669Z,81.23
2018-12-10T10:31:00.296Z,81.41
2018-12-10T10:32:05.909Z,81.96
2018-12-10T10:33:11.525Z,81.99
2018-12-10T10:34:17.886Z,83.01
2018-12-10T10:35:23.837Z,82.83
2018-12-10T10:36:29.446Z,83.02
2018-12-10T10:37:35.168Z,82.93
2018-12-10T10:38:41.406Z,83.04
2018-12-10T10:39:47.161Z,82.96
2018-12-10T10:40:52.805Z,83.63
2018-12-10T10:41:58.828Z,84.19
2018-12-10T10:43:04.475Z,84.53
2018-12-10T10:44:10.132Z,82.99
2018-12-10T10:45:16.740Z,83.48
2018-12-10T10:46:22.409Z,83.91
2018-12-10T10:47:28.036Z,83.16
2018-12-10T10:48:34.966Z,83.01
2018-12-10T10:49:40.917Z,82.78
2018-12-10T10:50:46.570Z,83.40
2018-12-10T10:51:52.185Z,83.54
2018-12-10T10:52:58.117Z,83.01
2018-12-10T10:54:03.381Z,83.43
2018-12-10T10:55:09.377Z,83.12
2018-12-10T10:56:14.973Z,83.47
2018-12-10T10:57:20.580Z,82.56
2018-12-10T10:58:26.205Z,81.73
2018-12-10T10:59:32.101Z,81.67
2018-12-10T11:00:42.880Z,81.25
2018-12-10T11:01:59.141Z,81.12
2018-12-10T11:03:05.000Z,81.52
2018-12-10T11:04:10.709Z,80.88
2018-12-10T11:05:16.053Z,81.75
2018-12-10T11:06:21.854Z,81.64
2018-12-10T11:07:27.845Z,80.98
2018-12-10T11:08:33.469Z,81.01
2018-12-10T11:09:39.146Z,80.36
2018-12-10T11:10:44.777Z,80.35
2018-12-10T11:11:50.952Z,80.21
2018-12-10T11:12:56.553Z,79.81
2018-12-10T11:14:02.608Z,79.87
2018-12-10T11:15:08.570Z,79.36
2018-12-10T11:16:14.280Z,79.38
2018-12-10T11:17:21.308Z,79.61
2018-12-10T11:18:26.601Z,79.35
2018-12-10T11:19:32.465Z,79.19
2018-12-10T11:20:37.737Z,79.38
2018-12-10T11:21:43.407Z,79.60
2018-12-10T11:22:49.017Z,78.66
2018-12-10T11:23:54.745Z,78.49
2018-12-10T11:25:00.409Z,78.17
2018-12-10T11:26:05.975Z,77.82
2018-12-10T11:27:11.604Z,78.42
2018-12-10T11:28:16.854Z,78.46
2018-12-10T11:29:22.971Z,78.54
2018-12-10T11:30:28.665Z,78.01
2018-12-10T11:31:34.292Z,78.48
2018-12-10T11:32:40.756Z,79.02
2018-12-10T11:33:47.556Z,78.80
2018-12-10T11:34:53.587Z,79.22
2018-12-10T11:35:59.198Z,78.38
2018-12-10T11:37:05.782Z,78.03
2018-12-10T11:38:12.035Z,78.19
2018-12-10T11:39:17.931Z,79.03
2018-12-10T11:40:24.094Z,78.10
2018-12-10T11:41:33.082Z,78.09
2018-12-10T11:42:40.362Z,77.61
2018-12-10T11:43:46.736Z,77.57
2018-12-10T11:44:53.352Z,77.93
2018-12-10T11:45:59.351Z,77.96
2018-12-10T11:47:13.004Z,77.41
2018-12-10T11:48:14.109Z,76.99
2018-12-10T11:49:20.952Z,77.31
2018-12-10T11:50:27.615Z,77.13
2018-12-10T11:51:35.261Z,77.07
2018-12-10T11:52:41.724Z,76.79
2018-12-10T11:53:47.117Z,77.94
2018-12-10T11:54:53.662Z,77.78
2018-12-10T11:55:59.340Z,77.31
2018-12-10T11:57:04.964Z,76.46
2018-12-10T11:58:10.596Z,76.13
2018-12-10T11:59:16.859Z,75.19
2018-12-10T12:00:22.450Z,74.91
2018-12-10T12:01:30.331Z,76.05
2018-12-10T12:02:36.745Z,76.95
2018-12-10T12:03:42.388Z,76.99
2018-12-10T12:04:48.844Z,76.78
2018-12-10T12:05:55.353Z,77.02
2018-12-10T12:07:01.537Z,77.42
2018-12-10T12:08:07.909Z,76.86
2018-12-10T12:09:14.466Z,77.11
2018-12-10T12:10:20.400Z,76.17
2018-12-10T12:11:26.005Z,76.98
2018-12-10T12:12:33.330Z,78.10
2018-12-10T12:13:40.641Z,77.79
2018-12-10T12:14:47.293Z,77.58
2018-12-10T12:15:54.364Z,77.33
2018-12-10T12:17:00.851Z,78.06
2018-12-10T12:18:08.481Z,77.71
2018-12-10T12:19:15.919Z,78.15
2018-12-10T12:20:21.704Z,78.00
2018-12-10T12:21:27.733Z,78.26
2018-12-10T12:22:34.043Z,79.01
2018-12-10T12:23:39.590Z,78.39
2018-12-10T12:24:45.191Z,78.36
2018-12-10T12:25:50.828Z,77.92
2018-12-10T12:26:58.294Z,78.00
2018-12-10T12:28:03.977Z,77.38
2018-12-10T12:29:10.101Z,77.84
2018-12-10T12:30:16.450Z,77.99
2018-12-10T12:31:22.109Z,78.32
2018-12-10T12:32:28.562Z,78.74
2018-12-10T12:33:34.548Z,79.57
2018-12-10T12:34:41.457Z,79.73
2018-12-10T12:35:47.562Z,78.87
2018-12-10T12:36:53.161Z,78.41
2018-12-10T12:37:58.812Z,78.25
2018-12-10T12:39:03.505Z,78.79
2018-12-10T12:40:08.768Z,78.43
2018-12-10T12:41:14.964Z,78.87
2018-12-10T12:42:21.452Z,78.45
2018-12-10T12:43:28.847Z,78.71
2018-12-10T12:44:34.461Z,79.44
2018-12-10T12:45:41.101Z,79.52
2018-12-10T12:46:47.537Z,79.93
2018-12-10T12:47:53.225Z,78.83
2018-12-10T12:48:58.868Z,78.84
2018-12-10T12:50:05.659Z,79.56
2018-12-10T12:51:11.573Z,80.25
2018-12-10T12:52:17.238Z,80.55
2018-12-10T12:53:22.930Z,80.33
2018-12-10T12:54:29.005Z,80.88
2018-12-10T12:55:36.278Z,81.21
2018-12-10T12:56:42.651Z,81.46
2018-12-10T12:57:49.445Z,81.46
2018-12-10T12:58:55.665Z,82.11
2018-12-10T13:00:01.443Z,82.68
2018-12-10T13:01:06.842Z,82.86
2018-12-10T13:02:13.466Z,83.00
2018-12-10T13:03:19.145Z,83.16
2018-12-10T13:04:24.632Z,83.21
2018-12-10T13:05:30.062Z,83.04
2018-12-10T13:06:35.921Z,82.84
2018-12-10T13:07:41.714Z,83.06
2018-12-10T13:08:48.159Z,83.56
2018-12-10T13:09:53.788Z,82.84
2018-12-10T13:11:00.272Z,82.56
2018-12-10T13:12:06.797Z,82.64
2018-12-10T13:13:13.055Z,83.08
2018-12-10T13:14:18.704Z,82.71
2018-12-10T13:15:24.336Z,82.82
2018-12-10T13:16:29.965Z,82.49
2018-12-10T13:17:37.325Z,82.74
2018-12-10T13:18:42.687Z,82.96
2018-12-10T13:19:48.307Z,82.38
2018-12-10T13:20:54.153Z,82.88
2018-12-10T13:21:59.908Z,83.40
2018-12-10T13:23:05.182Z,83.50
2018-12-10T13:24:11.274Z,83.27
2018-12-10T13:25:17.819Z,83.13
2018-12-10T13:26:23.980Z,82.83
2018-12-10T13:27:29.718Z,83.69
2018-12-10T13:28:35.792Z,82.99
2018-12-10T13:29:41.505Z,83.49
2018-12-10T13:30:47.116Z,83.41
2018-12-10T13:31:52.784Z,83.74
2018-12-10T13:32:58.421Z,84.24
2018-12-10T13:34:05.164Z,84.37
2018-12-10T13:35:11.099Z,84.18
2018-12-10T13:36:17.273Z,84.56
2018-12-10T13:37:24.309Z,84.78
2018-12-10T13:38:30.229Z,84.95
2018-12-10T13:39:37.103Z,84.86
2018-12-10T13:40:42.707Z,84.27
2018-12-10T13:41:51.138Z,84.09
2018-12-10T13:42:58.501Z,84.02
2018-12-10T13:44:04.711Z,83.57
2018-12-10T13:45:15.822Z,83.37
2018-12-10T13:46:24.432Z,83.97
2018-12-10T13:47:30.148Z,83.85
2018-12-10T13:48:36.792Z,84.27
2018-12-10T13:49:42.672Z,84.03
2018-12-10T13:50:48.752Z,84.32
2018-12-10T13:51:54.425Z,83.36
2018-12-10T13:53:00.054Z,82.50
2018-12-10T13:54:06.197Z,82.85
2018-12-10T13:55:11.818Z,82.81
2018-12-10T13:56:18.944Z,82.39
2018-12-10T13:57:24.705Z,82.57
2018-12-10T13:58:30.429Z,82.11
2018-12-10T13:59:37.642Z,82.99
2018-12-10T14:00:43.235Z,82.24
2018-12-10T14:01:48.875Z,82.41
2018-12-10T14:02:54.487Z,82.07
2018-12-10T14:04:00.582Z,82.68
2018-12-10T14:05:05.292Z,82.61
2018-12-10T14:06:10.906Z,82.90
2018-12-10T14:07:17.212Z,83.10